CheckWX is a tool to help pilots better visualize weather data.  It is not intended as a substitute for an official pre-flight weather briefing.

21:19:53 UTC

CYPX METAR
Puvirnituq Airport
Puvirnituq, Canada
Current

20 mins ago

CYPX 232100Z AUTO 21017KT 9SM OVC010 M03/M05 A2997 RMK SLP153
Observed
May-23 @ 21:00 UTC
Wind
  • 210° at 17 KTS
Visibility
9 SM
Flight Rules
MVFR
Cloud Levels
  • Overcast at 1,000' AGL
Temperature
-3°C / 27°F
Dewpoint
-5°C / 23°F
Humidity
86%
Altimeter
29.97" Hg
Pressure
1014.92 hPa
Previous

1 hour ago

CYPX 232000Z AUTO 21020G25KT 9SM OVC014 M03/M05 A2997 RMK SLP151
Observed
May-23 @ 20:00 UTC
Wind
  • 210° at 20 KTS
  • Gusting to 25 KTS
Visibility
9 SM
Flight Rules
MVFR
Cloud Levels
  • Overcast at 1,400' AGL
Temperature
-3°C / 27°F
Dewpoint
-5°C / 23°F
Humidity
86%
Altimeter
29.97" Hg
Pressure
1014.92 hPa
Previous

2 hours ago

CYPX 231913Z AUTO 21021KT 9SM -SN BKN010 OVC016 M02/M04 A2997 RMK SLP151
Observed
May-23 @ 19:13 UTC
Wind
  • 210° at 21 KTS
Visibility
9 SM
Flight Rules
MVFR
Conditions
Light Snow
Cloud Levels
  • Broken at 1,000' AGL
  • Overcast at 1,600' AGL
Temperature
-2°C / 28°F
Dewpoint
-4°C / 25°F
Humidity
86%
Altimeter
29.97" Hg
Pressure
1014.92 hPa